createdAt,value
2019-05-30T00:01:00.053Z,4.57
2019-05-30T00:03:29.337Z,5.67
2019-05-30T00:05:58.774Z,6.97
2019-05-30T00:08:28.339Z,4.63
2019-05-30T00:10:58.529Z,7.80
2019-05-30T00:13:27.974Z,6.47
2019-05-30T00:15:58.665Z,4.50
2019-05-30T00:18:28.087Z,3.37
2019-05-30T00:20:58.738Z,5.90
2019-05-30T00:23:28.292Z,7.30
2019-05-30T00:25:57.617Z,6.13
2019-05-30T00:28:27.470Z,7.83
2019-05-30T00:30:58.250Z,7.27
2019-05-30T00:33:27.542Z,9.47
2019-05-30T00:35:57.666Z,3.53
2019-05-30T00:38:27.245Z,7.63
2019-05-30T00:40:57.781Z,5.63
2019-05-30T00:43:27.432Z,8.47
2019-05-30T00:45:57.932Z,3.27
2019-05-30T00:48:27.332Z,8.43
2019-05-30T00:50:58.261Z,4.30
2019-05-30T00:53:27.716Z,6.07
2019-05-30T00:55:57.125Z,3.80
2019-05-30T00:58:26.947Z,6.10
2019-05-30T01:00:56.810Z,3.67
2019-05-30T01:03:26.215Z,4.10
2019-05-30T01:05:56.678Z,5.53
2019-05-30T01:08:26.109Z,5.63
2019-05-30T01:10:56.868Z,3.73
2019-05-30T01:13:26.346Z,5.13
2019-05-30T01:15:56.857Z,6.93
2019-05-30T01:18:26.260Z,8.30
2019-05-30T01:20:57.016Z,7.23
2019-05-30T01:23:26.469Z,5.47
2019-05-30T01:25:57.233Z,8.07
2019-05-30T01:28:26.971Z,4.67
2019-05-30T01:31:00.297Z,6.40
2019-05-30T01:33:27.303Z,5.73
2019-05-30T01:35:57.769Z,9.83
2019-05-30T01:38:27.363Z,9.57
2019-05-30T01:40:57.685Z,4.87
2019-05-30T01:43:27.429Z,6.60
2019-05-30T01:45:58.029Z,8.20
2019-05-30T01:48:30.945Z,7.07
2019-05-30T01:51:00.411Z,5.73
2019-05-30T01:53:29.728Z,7.73
2019-05-30T01:56:00.690Z,14.17
2019-05-30T01:58:30.247Z,9.53
2019-05-30T02:01:16.338Z,6.07
2019-05-30T02:03:31.150Z,7.13
2019-05-30T02:06:01.035Z,6.03
2019-05-30T02:08:30.419Z,10.27
2019-05-30T02:11:01.294Z,9.67
2019-05-30T02:13:30.680Z,4.53
2019-05-30T02:15:59.964Z,8.80
2019-05-30T02:18:30.119Z,5.87
2019-05-30T02:20:59.589Z,10.60
2019-05-30T02:23:28.894Z,12.40
2019-05-30T02:25:59.969Z,10.77
2019-05-30T02:28:29.654Z,8.47
2019-05-30T02:31:00.510Z,6.60
2019-05-30T02:33:29.830Z,8.20
2019-05-30T02:36:01.019Z,12.17
2019-05-30T02:38:30.586Z,12.47
2019-05-30T02:41:01.292Z,15.87
2019-05-30T02:43:31.633Z,14.30
2019-05-30T02:46:01.064Z,15.37
2019-05-30T02:48:30.485Z,16.20
2019-05-30T02:51:01.001Z,13.07
2019-05-30T02:53:30.319Z,13.97
2019-05-30T02:56:01.309Z,10.60
2019-05-30T02:58:31.284Z,20.47
2019-05-30T03:01:01.945Z,15.23
2019-05-30T03:03:31.697Z,13.23
2019-05-30T03:06:01.919Z,11.47
2019-05-30T03:08:31.747Z,11.47
2019-05-30T03:11:02.412Z,12.73
2019-05-30T03:13:33.425Z,13.43
2019-05-30T03:16:04.509Z,18.43
2019-05-30T03:18:34.108Z,15.77
2019-05-30T03:21:05.453Z,19.97
2019-05-30T03:23:34.617Z,15.10
2019-05-30T03:26:04.926Z,10.80
2019-05-30T03:28:35.324Z,13.60
2019-05-30T03:31:14.695Z,9.10
2019-05-30T03:33:42.389Z,11.67
2019-05-30T03:36:19.984Z,10.80
2019-05-30T03:38:41.549Z,6.80
2019-05-30T03:41:12.133Z,11.83
2019-05-30T03:43:41.453Z,7.47
2019-05-30T03:46:16.202Z,12.10
2019-05-30T03:48:47.855Z,10.63
2019-05-30T03:51:20.106Z,10.10
2019-05-30T03:53:50.682Z,12.90
2019-05-30T03:56:23.972Z,11.70
2019-05-30T03:59:03.099Z,6.93
2019-05-30T04:01:56.465Z,8.27
2019-05-30T04:04:29.463Z,7.70
2019-05-30T04:07:03.693Z,7.83
2019-05-30T04:09:35.290Z,8.27
2019-05-30T04:12:16.731Z,7.23
2019-05-30T04:14:49.162Z,7.63
2019-05-30T04:17:19.969Z,4.30
2019-05-30T04:19:49.393Z,5.63
2019-05-30T04:22:19.622Z,4.23
2019-05-30T04:24:49.227Z,5.33
2019-05-30T04:27:18.721Z,4.83
2019-05-30T04:29:48.148Z,5.30
2019-05-30T04:32:18.774Z,3.60
2019-05-30T04:34:48.102Z,3.70
2019-05-30T04:37:18.939Z,5.67
2019-05-30T04:39:48.684Z,4.73
2019-05-30T04:42:20.608Z,9.57
2019-05-30T04:44:50.066Z,2.83
2019-05-30T04:47:20.806Z,6.57
2019-05-30T04:49:50.328Z,6.03
2019-05-30T04:52:24.086Z,2.93
2019-05-30T04:54:51.457Z,7.03
2019-05-30T04:57:25.747Z,5.03
2019-05-30T04:59:52.195Z,8.23
2019-05-30T05:02:23.288Z,32.97
2019-05-30T05:04:53.396Z,3.80
2019-05-30T05:07:22.760Z,6.13
2019-05-30T05:09:52.092Z,4.43
2019-05-30T05:12:22.413Z,3.30
2019-05-30T05:14:51.824Z,3.40
2019-05-30T05:17:21.292Z,4.67
2019-05-30T05:19:50.854Z,4.20
2019-05-30T05:22:21.158Z,3.73
2019-05-30T05:24:50.705Z,2.60
2019-05-30T05:27:20.154Z,3.70
2019-05-30T05:29:49.491Z,3.27
2019-05-30T05:32:18.963Z,2.15
2019-05-30T05:34:51.819Z,4.00
2019-05-30T05:37:19.354Z,2.30
2019-05-30T05:39:49.013Z,2.15
2019-05-30T05:42:18.350Z,5.72
2019-05-30T05:44:47.680Z,2.83
2019-05-30T05:47:18.378Z,3.50
2019-05-30T05:49:47.735Z,3.70
2019-05-30T05:52:17.057Z,4.87
2019-05-30T05:54:46.738Z,2.52
2019-05-30T05:57:16.736Z,2.87
2019-05-30T05:59:45.989Z,2.45
2019-05-30T06:02:17.541Z,7.03
2019-05-30T06:04:47.144Z,3.95
2019-05-30T06:07:16.448Z,6.05
2019-05-30T06:09:48.620Z,3.75
2019-05-30T06:12:17.957Z,4.03
2019-05-30T06:14:47.282Z,2.90
2019-05-30T06:17:17.360Z,4.20
2019-05-30T06:19:47.069Z,5.58
2019-05-30T06:22:17.395Z,3.72
2019-05-30T06:24:47.126Z,3.70
2019-05-30T06:27:17.717Z,3.65
2019-05-30T06:29:47.078Z,5.22
2019-05-30T06:32:16.973Z,4.40
2019-05-30T06:34:46.328Z,4.17
2019-05-30T06:37:15.631Z,7.90
2019-05-30T06:39:45.420Z,4.08
2019-05-30T06:42:14.779Z,4.72
2019-05-30T06:44:44.121Z,5.10
2019-05-30T06:47:13.926Z,3.98
2019-05-30T06:49:43.232Z,3.72
2019-05-30T06:52:12.555Z,6.20
2019-05-30T06:54:42.483Z,4.40
2019-05-30T06:57:11.768Z,3.08
2019-05-30T06:59:41.151Z,2.72
2019-05-30T07:02:11.536Z,1.62
2019-05-30T07:04:51.333Z,2.72
2019-05-30T07:07:12.762Z,5.78
2019-05-30T07:09:42.299Z,2.27
2019-05-30T07:12:12.102Z,2.02
2019-05-30T07:14:42.145Z,2.58
2019-05-30T07:17:11.533Z,5.83
2019-05-30T07:19:40.835Z,3.60
2019-05-30T07:22:10.727Z,2.92
2019-05-30T07:24:40.426Z,3.55
2019-05-30T07:27:09.721Z,2.05
2019-05-30T07:29:39.458Z,6.90
2019-05-30T07:32:09.028Z,4.58
2019-05-30T07:34:38.357Z,2.75
2019-05-30T07:37:09.230Z,4.47
2019-05-30T07:39:38.640Z,2.35
2019-05-30T07:42:07.931Z,4.90
2019-05-30T07:44:37.389Z,1.75
2019-05-30T07:47:06.756Z,3.70
2019-05-30T07:49:36.139Z,3.62
2019-05-30T07:52:05.641Z,5.47
2019-05-30T07:54:35.203Z,3.77
2019-05-30T07:57:04.604Z,2.95
2019-05-30T07:59:34.606Z,2.98
2019-05-30T08:02:04.379Z,2.05
2019-05-30T08:04:34.131Z,3.75
2019-05-30T08:07:03.638Z,3.87
2019-05-30T08:09:33.111Z,4.87
2019-05-30T08:12:02.418Z,4.67
2019-05-30T08:14:33.307Z,4.33
2019-05-30T08:17:02.658Z,2.90
2019-05-30T08:19:32.786Z,3.12
2019-05-30T08:22:03.047Z,3.72
2019-05-30T08:24:32.413Z,5.28
2019-05-30T08:27:01.759Z,3.12
2019-05-30T08:29:32.109Z,3.80
2019-05-30T08:32:01.932Z,5.30
2019-05-30T08:34:32.395Z,4.67
2019-05-30T08:37:02.267Z,3.30
2019-05-30T08:39:32.971Z,4.97
2019-05-30T08:42:02.283Z,3.10
2019-05-30T08:44:31.697Z,2.62
2019-05-30T08:47:01.183Z,6.30
2019-05-30T08:49:30.508Z,4.30
2019-05-30T08:51:59.994Z,4.72
2019-05-30T08:54:30.262Z,6.05
2019-05-30T08:56:59.626Z,5.63
2019-05-30T08:59:30.256Z,7.37
2019-05-30T09:01:59.667Z,3.37
2019-05-30T09:04:29.001Z,7.37
2019-05-30T09:06:58.400Z,4.43
2019-05-30T09:09:27.850Z,4.90
2019-05-30T09:11:57.164Z,4.30
2019-05-30T09:14:26.650Z,7.07
2019-05-30T09:16:57.078Z,7.13
2019-05-30T09:19:26.479Z,5.53
2019-05-30T09:21:56.288Z,5.30
2019-05-30T09:24:25.902Z,7.10
2019-05-30T09:26:55.271Z,6.20
2019-05-30T09:29:25.018Z,8.23
2019-05-30T09:31:54.399Z,6.47
2019-05-30T09:34:23.714Z,7.90
2019-05-30T09:36:53.225Z,8.50
2019-05-30T09:39:22.568Z,6.93
2019-05-30T09:41:51.950Z,7.60
2019-05-30T09:44:21.478Z,8.00
2019-05-30T09:46:50.973Z,6.70
2019-05-30T09:49:20.283Z,6.40
2019-05-30T09:51:51.105Z,3.50
2019-05-30T09:54:20.628Z,7.50
2019-05-30T09:56:51.092Z,7.67
2019-05-30T09:59:20.766Z,6.90
2019-05-30T10:01:50.295Z,15.07
2019-05-30T10:04:19.694Z,7.63
2019-05-30T10:06:49.149Z,5.03
2019-05-30T10:09:18.595Z,8.23
2019-05-30T10:11:47.900Z,7.17
2019-05-30T10:14:17.342Z,6.67
2019-05-30T10:16:50.663Z,8.20
2019-05-30T10:19:18.032Z,10.43
2019-05-30T10:21:47.315Z,10.87
2019-05-30T10:24:16.684Z,10.13
2019-05-30T10:26:47.167Z,8.77
2019-05-30T10:29:16.496Z,7.20
2019-05-30T10:31:46.493Z,6.03
2019-05-30T10:34:16.074Z,8.80
2019-05-30T10:36:47.137Z,5.60
2019-05-30T10:39:16.604Z,7.30
2019-05-30T10:41:47.480Z,9.67
2019-05-30T10:44:16.882Z,10.57
2019-05-30T10:46:47.563Z,11.40
2019-05-30T10:49:31.525Z,8.43
2019-05-30T10:51:49.639Z,10.80
2019-05-30T10:54:19.141Z,9.40
2019-05-30T10:56:49.863Z,11.00
2019-05-30T10:59:19.272Z,8.30
2019-05-30T11:01:50.217Z,8.17
2019-05-30T11:04:19.714Z,9.60
2019-05-30T11:07:10.391Z,9.37
2019-05-30T11:09:33.481Z,10.03
2019-05-30T11:12:02.994Z,11.83
2019-05-30T11:14:32.272Z,15.87
2019-05-30T11:17:01.577Z,8.87
2019-05-30T11:19:31.269Z,5.93
2019-05-30T11:22:00.597Z,11.70
2019-05-30T11:24:29.888Z,9.10
2019-05-30T11:27:00.142Z,7.67
2019-05-30T11:29:29.474Z,8.30
2019-05-30T11:31:59.098Z,11.67
2019-05-30T11:34:28.846Z,14.70
2019-05-30T11:36:59.344Z,9.00
2019-05-30T11:39:29.569Z,8.83
2019-05-30T11:41:59.552Z,6.10
2019-05-30T11:44:28.884Z,6.53
2019-05-30T11:46:58.220Z,6.13
2019-05-30T11:49:27.698Z,10.80
2019-05-30T11:51:57.893Z,6.30
2019-05-30T11:54:27.286Z,5.53
2019-05-30T11:56:58.142Z,4.53
2019-05-30T11:59:27.432Z,8.47
2019-05-30T12:01:56.742Z,6.63
2019-05-30T12:04:26.240Z,8.13
2019-05-30T12:06:56.749Z,12.77
2019-05-30T12:09:26.337Z,8.70
2019-05-30T12:11:59.217Z,8.87
2019-05-30T12:14:28.645Z,8.33
2019-05-30T12:16:58.023Z,5.40
2019-05-30T12:19:28.022Z,6.83
2019-05-30T12:21:57.689Z,7.03
2019-05-30T12:24:27.037Z,8.07
2019-05-30T12:26:56.616Z,6.67
2019-05-30T12:29:25.894Z,11.97
2019-05-30T12:31:57.529Z,5.67
2019-05-30T12:34:26.629Z,9.83
2019-05-30T12:36:56.409Z,6.40
2019-05-30T12:39:25.846Z,8.73
2019-05-30T12:41:56.799Z,14.13
2019-05-30T12:44:26.181Z,11.07
2019-05-30T12:46:55.609Z,8.97
2019-05-30T12:49:25.682Z,7.13
2019-05-30T12:51:56.155Z,10.07
2019-05-30T12:54:25.454Z,5.77
2019-05-30T12:56:56.552Z,7.60
2019-05-30T12:59:25.909Z,6.27
2019-05-30T13:01:55.235Z,6.70
2019-05-30T13:04:24.706Z,5.47
2019-05-30T13:06:55.866Z,6.87
2019-05-30T13:09:25.134Z,8.53
2019-05-30T13:11:56.369Z,10.07
2019-05-30T13:14:25.915Z,11.57
2019-05-30T13:16:55.648Z,6.77
2019-05-30T13:19:25.266Z,7.87
2019-05-30T13:21:55.410Z,9.93
2019-05-30T13:24:24.734Z,7.10
2019-05-30T13:26:55.586Z,10.13
2019-05-30T13:29:25.689Z,8.40
2019-05-30T13:31:56.249Z,6.33
2019-05-30T13:34:25.731Z,5.33
2019-05-30T13:36:55.128Z,3.70
2019-05-30T13:39:24.495Z,3.97
2019-05-30T13:41:53.949Z,4.90
2019-05-30T13:44:23.459Z,6.07
2019-05-30T13:46:52.781Z,9.03
2019-05-30T13:49:22.109Z,1.87
2019-05-30T13:51:51.715Z,3.07
2019-05-30T13:54:21.027Z,4.00
2019-05-30T13:56:50.379Z,8.13
2019-05-30T13:59:19.929Z,7.67
2019-05-30T14:01:49.251Z,4.27
2019-05-30T14:04:18.865Z,7.17
2019-05-30T14:06:49.970Z,4.17
2019-05-30T14:09:19.302Z,4.63
2019-05-30T14:11:49.248Z,4.93
2019-05-30T14:14:19.854Z,5.77
2019-05-30T14:16:49.139Z,5.40
2019-05-30T14:19:18.673Z,6.23
2019-05-30T14:21:48.561Z,6.07
2019-05-30T14:24:17.825Z,2.90
2019-05-30T14:26:49.096Z,6.47
2019-05-30T14:29:18.419Z,3.57
2019-05-30T14:31:47.723Z,7.10
2019-05-30T14:34:17.485Z,12.77
2019-05-30T14:36:46.830Z,8.27
2019-05-30T14:39:16.133Z,10.13
2019-05-30T14:41:46.063Z,4.87
2019-05-30T14:44:15.392Z,9.23
2019-05-30T14:46:44.679Z,5.57
2019-05-30T14:49:14.299Z,7.33
2019-05-30T14:51:43.599Z,7.60
2019-05-30T14:54:13.237Z,6.13
2019-05-30T14:56:43.253Z,10.73
2019-05-30T14:59:13.172Z,6.73
2019-05-30T15:01:42.398Z,7.50
2019-05-30T15:04:13.329Z,8.87
2019-05-30T15:06:42.749Z,10.87
2019-05-30T15:09:22.083Z,9.37
2019-05-30T15:11:45.710Z,9.37
2019-05-30T15:14:15.011Z,6.10
2019-05-30T15:16:44.335Z,8.23
2019-05-30T15:19:14.373Z,9.87
2019-05-30T15:21:43.839Z,8.57
2019-05-30T15:24:14.280Z,7.47
2019-05-30T15:26:44.256Z,7.50
2019-05-30T15:29:14.168Z,9.43
2019-05-30T15:31:43.460Z,9.23
2019-05-30T15:34:13.009Z,9.50
2019-05-30T15:36:42.350Z,13.10
2019-05-30T15:39:11.615Z,6.50
2019-05-30T15:41:41.054Z,10.13
2019-05-30T15:44:11.559Z,8.57
2019-05-30T15:46:40.861Z,7.70
2019-05-30T15:49:10.321Z,7.53
2019-05-30T15:51:39.686Z,9.50
2019-05-30T15:54:09.041Z,6.53
2019-05-30T15:56:38.663Z,7.97
2019-05-30T15:59:07.968Z,5.40
2019-05-30T16:01:37.270Z,11.03
2019-05-30T16:04:06.912Z,8.27
2019-05-30T16:06:36.219Z,6.43
2019-05-30T16:09:07.075Z,6.20
2019-05-30T16:11:37.136Z,10.43
2019-05-30T16:14:06.475Z,6.60
2019-05-30T16:16:40.247Z,5.63
2019-05-30T16:19:19.576Z,6.10
2019-05-30T16:21:38.018Z,9.93
2019-05-30T16:24:07.374Z,9.90
2019-05-30T16:26:36.914Z,6.80
2019-05-30T16:29:06.262Z,8.10
2019-05-30T16:31:35.587Z,6.77
2019-05-30T16:34:05.173Z,7.37
2019-05-30T16:36:34.520Z,13.60
2019-05-30T16:39:04.050Z,8.30
2019-05-30T16:41:33.512Z,6.93
2019-05-30T16:44:02.853Z,9.67
2019-05-30T16:46:32.184Z,7.93
2019-05-30T16:49:01.725Z,7.17
2019-05-30T16:51:31.032Z,28.70
2019-05-30T16:54:00.367Z,8.97
2019-05-30T16:56:29.845Z,8.43
2019-05-30T16:58:59.741Z,8.97
2019-05-30T17:01:29.100Z,6.30
2019-05-30T17:03:58.664Z,9.57
2019-05-30T17:06:27.998Z,7.83
2019-05-30T17:08:57.388Z,7.23
2019-05-30T17:11:27.036Z,5.37
2019-05-30T17:13:56.329Z,6.47
2019-05-30T17:16:26.269Z,4.43
2019-05-30T17:18:56.654Z,5.03
2019-05-30T17:21:26.789Z,5.40
2019-05-30T17:23:56.161Z,6.43
2019-05-30T17:26:25.690Z,4.10
2019-05-30T17:28:54.963Z,4.07
2019-05-30T17:31:24.267Z,4.13
2019-05-30T17:33:53.924Z,4.50
2019-05-30T17:36:24.177Z,2.60
2019-05-30T17:38:53.670Z,3.37
2019-05-30T17:41:23.133Z,3.20
2019-05-30T17:43:52.402Z,3.23
2019-05-30T17:46:21.745Z,5.57
2019-05-30T17:48:51.189Z,8.07
2019-05-30T17:51:21.809Z,5.70
2019-05-30T17:53:51.165Z,8.53
2019-05-30T17:56:21.947Z,9.97
2019-05-30T17:58:51.320Z,11.83
2019-05-30T18:01:20.681Z,12.77
2019-05-30T18:03:50.335Z,14.83
2019-05-30T18:06:20.371Z,14.87
2019-05-30T18:08:49.723Z,17.50
2019-05-30T18:11:19.262Z,16.63
2019-05-30T18:13:48.568Z,16.03
2019-05-30T18:16:17.828Z,16.27
2019-05-30T18:18:47.546Z,16.20
2019-05-30T18:21:16.854Z,18.00
2019-05-30T18:23:46.143Z,19.83
2019-05-30T18:26:15.810Z,17.23
2019-05-30T18:28:45.156Z,18.33
2019-05-30T18:31:14.472Z,21.57
2019-05-30T18:33:43.950Z,23.87
2019-05-30T18:36:13.254Z,25.03
2019-05-30T18:38:42.574Z,25.43
2019-05-30T18:41:15.824Z,26.83
2019-05-30T18:43:43.354Z,22.83
2019-05-30T18:46:12.664Z,23.27
2019-05-30T18:48:42.415Z,22.43
2019-05-30T18:51:11.953Z,24.67
2019-05-30T18:53:41.355Z,21.77
2019-05-30T18:56:10.871Z,23.27
2019-05-30T18:58:40.176Z,24.73
2019-05-30T19:01:09.510Z,24.07
2019-05-30T19:03:39.243Z,24.67
2019-05-30T19:06:08.622Z,21.60
2019-05-30T19:08:37.990Z,21.23
2019-05-30T19:11:07.489Z,26.10
2019-05-30T19:13:37.326Z,24.90
2019-05-30T19:16:06.720Z,23.03
2019-05-30T19:18:36.422Z,25.50
2019-05-30T19:21:05.826Z,26.60
2019-05-30T19:23:38.337Z,29.67
2019-05-30T19:26:06.830Z,28.73
2019-05-30T19:28:36.697Z,28.60
2019-05-30T19:31:06.071Z,35.47
2019-05-30T19:33:35.525Z,32.87
2019-05-30T19:36:04.832Z,37.67
2019-05-30T19:38:35.400Z,30.93
2019-05-30T19:41:05.286Z,34.67
2019-05-30T19:43:35.804Z,33.10
2019-05-30T19:46:05.249Z,33.73
2019-05-30T19:48:34.889Z,35.30
2019-05-30T19:51:04.196Z,31.17
2019-05-30T19:53:33.517Z,32.63
2019-05-30T19:56:04.232Z,33.33
2019-05-30T19:58:33.545Z,37.43
2019-05-30T20:01:02.857Z,34.83
2019-05-30T20:03:40.887Z,34.90
2019-05-30T20:06:03.321Z,32.27
2019-05-30T20:08:47.904Z,37.90
2019-05-30T20:11:03.899Z,39.10
2019-05-30T20:13:33.288Z,43.20
2019-05-30T20:16:02.565Z,40.20
2019-05-30T20:18:32.120Z,37.07
2019-05-30T20:21:01.487Z,37.73
2019-05-30T20:23:45.484Z,43.07
2019-05-30T20:26:02.461Z,36.03
2019-05-30T20:28:32.693Z,43.63
2019-05-30T20:31:02.047Z,37.20
2019-05-30T20:33:31.513Z,47.30
2019-05-30T20:36:00.827Z,38.67
2019-05-30T20:38:30.122Z,41.70
2019-05-30T20:40:59.670Z,39.67
2019-05-30T20:43:29.078Z,40.37
2019-05-30T20:45:58.406Z,44.07
2019-05-30T20:48:27.852Z,38.57
2019-05-30T20:50:57.198Z,38.83
2019-05-30T20:53:26.555Z,37.70
2019-05-30T20:55:56.215Z,33.60
2019-05-30T20:58:25.516Z,35.17
2019-05-30T21:00:55.894Z,32.57
2019-05-30T21:03:25.440Z,34.93
2019-05-30T21:05:55.532Z,34.53
2019-05-30T21:08:24.949Z,29.70
2019-05-30T21:10:55.923Z,34.30
2019-05-30T21:13:25.254Z,34.37
2019-05-30T21:15:56.620Z,32.63
2019-05-30T21:18:28.603Z,36.27
2019-05-30T21:20:57.960Z,34.40
2019-05-30T21:23:27.263Z,33.70
2019-05-30T21:25:57.425Z,32.53
2019-05-30T21:28:26.697Z,31.67
2019-05-30T21:30:56.034Z,34.13
2019-05-30T21:33:25.641Z,33.87
2019-05-30T21:35:55.114Z,32.13
2019-05-30T21:38:24.438Z,27.90
2019-05-30T21:40:54.037Z,31.23
2019-05-30T21:43:23.385Z,28.40
2019-05-30T21:45:52.667Z,24.87
2019-05-30T21:48:22.233Z,27.53
2019-05-30T21:50:51.584Z,26.93
2019-05-30T21:53:20.942Z,30.17
2019-05-30T21:55:50.507Z,29.37
2019-05-30T21:58:19.850Z,25.60
2019-05-30T22:01:22.212Z,28.10
2019-05-30T22:03:51.601Z,22.70
2019-05-30T22:06:21.055Z,25.73
2019-05-30T22:08:51.519Z,26.90
2019-05-30T22:11:21.566Z,23.37
2019-05-30T22:13:52.035Z,23.13
2019-05-30T22:16:21.522Z,21.37
2019-05-30T22:18:52.135Z,33.30
2019-05-30T22:21:21.663Z,28.53
2019-05-30T22:23:52.406Z,24.53
2019-05-30T22:26:21.971Z,26.50
2019-05-30T22:28:52.543Z,23.17
2019-05-30T22:31:22.383Z,26.30
2019-05-30T22:33:53.279Z,27.53
2019-05-30T22:36:22.716Z,23.93
2019-05-30T22:38:53.154Z,20.67
2019-05-30T22:41:23.141Z,21.17
2019-05-30T22:43:52.934Z,25.03
2019-05-30T22:46:22.581Z,26.10
2019-05-30T22:48:52.981Z,27.13
2019-05-30T22:51:22.403Z,20.60
2019-05-30T22:53:53.095Z,20.63
2019-05-30T22:56:22.774Z,22.30
2019-05-30T22:58:52.039Z,18.63
2019-05-30T23:01:21.538Z,19.77
2019-05-30T23:03:52.201Z,20.67
2019-05-30T23:06:22.474Z,17.00
2019-05-30T23:08:52.655Z,16.57
2019-05-30T23:11:21.980Z,17.03
2019-05-30T23:13:51.978Z,18.67
2019-05-30T23:16:21.549Z,16.87
2019-05-30T23:18:50.833Z,18.23
2019-05-30T23:21:20.133Z,18.73
2019-05-30T23:23:51.720Z,20.87
2019-05-30T23:26:21.106Z,22.23
2019-05-30T23:28:51.703Z,18.43
2019-05-30T23:31:21.365Z,20.13
2019-05-30T23:33:50.662Z,21.37
2019-05-30T23:36:19.945Z,22.00
2019-05-30T23:38:50.752Z,21.07
2019-05-30T23:41:20.111Z,26.37
2019-05-30T23:43:59.517Z,26.57
2019-05-30T23:46:20.605Z,23.83
2019-05-30T23:48:49.972Z,26.80
2019-05-30T23:51:19.293Z,31.20
2019-05-30T23:53:50.000Z,29.37
2019-05-30T23:56:19.455Z,24.83
2019-05-30T23:58:48.711Z,26.60
